createdAt,value
2022-12-03T00:01:49.149Z,4.34
2022-12-03T00:04:19.138Z,5.83
2022-12-03T00:06:47.069Z,4.74
2022-12-03T00:09:15.118Z,3.63
2022-12-03T00:11:43.067Z,3.15
2022-12-03T00:14:11.057Z,4.91
2022-12-03T00:16:39.091Z,4.81
2022-12-03T00:19:09.674Z,3.75
2022-12-03T00:21:37.454Z,2.98
2022-12-03T00:24:06.156Z,3.62
2022-12-03T00:26:34.260Z,5.33
2022-12-03T00:29:02.558Z,4.75
2022-12-03T00:31:31.004Z,3.66
2022-12-03T00:34:00.261Z,2.89
2022-12-03T00:36:31.364Z,2.97
2022-12-03T00:38:59.873Z,4.66
2022-12-03T00:41:27.989Z,5.52
2022-12-03T00:43:58.011Z,4.47
2022-12-03T00:46:28.689Z,3.50
2022-12-03T00:48:59.257Z,2.93
2022-12-03T00:51:29.855Z,4.11
2022-12-03T00:53:57.906Z,5.54
2022-12-03T00:56:25.991Z,4.73
2022-12-03T00:58:54.380Z,3.68
2022-12-03T01:01:23.629Z,2.94
2022-12-03T01:03:51.899Z,2.92
2022-12-03T01:06:19.677Z,4.57
2022-12-03T01:08:47.944Z,5.55
2022-12-03T01:11:34.548Z,4.57
2022-12-03T01:14:14.307Z,3.45
2022-12-03T01:16:44.056Z,2.72
2022-12-03T01:19:17.248Z,2.81
2022-12-03T01:21:49.269Z,4.55
2022-12-03T01:24:19.003Z,5.57
2022-12-03T01:26:47.221Z,4.57
2022-12-03T01:29:16.061Z,3.56
2022-12-03T01:32:02.918Z,3.07
2022-12-03T01:34:31.138Z,4.75
2022-12-03T01:37:00.505Z,5.61
2022-12-03T01:39:28.418Z,4.60
2022-12-03T01:41:59.098Z,3.56
2022-12-03T01:44:35.276Z,3.05
2022-12-03T01:47:06.821Z,4.50
2022-12-03T01:50:08.000Z,5.25
2022-12-03T01:52:38.229Z,4.00
2022-12-03T01:55:13.213Z,3.17
2022-12-03T01:57:48.383Z,3.07
2022-12-03T02:00:23.358Z,4.84
2022-12-03T02:03:01.616Z,5.21
2022-12-03T02:05:34.298Z,3.98
2022-12-03T02:08:02.225Z,3.12
2022-12-03T02:10:35.365Z,2.94
2022-12-03T02:13:07.987Z,4.64
2022-12-03T02:15:39.882Z,4.91
2022-12-03T02:18:11.558Z,3.79
2022-12-03T02:20:53.526Z,3.27
2022-12-03T02:23:36.321Z,4.82
2022-12-03T02:26:04.627Z,4.58
2022-12-03T02:28:34.359Z,3.50
2022-12-03T02:31:02.524Z,3.42
2022-12-03T02:33:35.004Z,5.05
2022-12-03T02:36:04.465Z,4.89
2022-12-03T02:38:38.761Z,3.72
2022-12-03T02:41:11.020Z,3.47
2022-12-03T02:43:39.195Z,5.18
2022-12-03T02:46:08.140Z,5.56
2022-12-03T02:48:46.649Z,4.24
2022-12-03T02:51:14.747Z,3.19
2022-12-03T02:53:50.129Z,3.38
2022-12-03T02:56:21.480Z,5.25
2022-12-03T02:58:55.621Z,5.41
2022-12-03T03:01:23.466Z,3.92
2022-12-03T03:03:55.074Z,3.54
2022-12-03T03:06:26.511Z,5.11
2022-12-03T03:08:54.721Z,5.57
2022-12-03T03:11:23.396Z,4.36
2022-12-03T03:13:51.376Z,3.50
2022-12-03T03:16:19.416Z,4.61
2022-12-03T03:18:47.584Z,5.72
2022-12-03T03:21:15.290Z,4.73
2022-12-03T03:23:43.068Z,3.59
2022-12-03T03:26:13.760Z,3.39
2022-12-03T03:28:45.653Z,5.13
2022-12-03T03:31:16.090Z,5.11
2022-12-03T03:33:46.245Z,3.98
2022-12-03T03:36:14.980Z,3.49
2022-12-03T03:38:42.788Z,4.99
2022-12-03T03:41:11.439Z,5.77
2022-12-03T03:43:42.041Z,4.67
2022-12-03T03:46:10.679Z,3.67
2022-12-03T03:48:38.934Z,4.43
2022-12-03T03:51:09.493Z,5.88
2022-12-03T03:53:41.681Z,5.22
2022-12-03T03:56:09.951Z,4.00
2022-12-03T03:58:40.840Z,3.74
2022-12-03T04:01:11.570Z,5.40
2022-12-03T04:03:39.699Z,5.64
2022-12-03T04:06:11.395Z,4.42
2022-12-03T04:08:39.482Z,3.73
2022-12-03T04:11:26.281Z,5.06
2022-12-03T04:13:54.088Z,5.78
2022-12-03T04:16:21.900Z,4.70
2022-12-03T04:18:50.855Z,3.77
2022-12-03T04:21:42.341Z,4.77
2022-12-03T04:24:11.266Z,6.00
2022-12-03T04:26:57.635Z,4.93
2022-12-03T04:29:25.504Z,3.80
2022-12-03T04:32:11.867Z,3.68
2022-12-03T04:34:58.272Z,5.43
2022-12-03T04:37:26.133Z,4.77
2022-12-03T04:39:53.981Z,3.79
2022-12-03T04:42:22.017Z,3.29
2022-12-03T04:44:50.509Z,4.60
2022-12-03T04:47:20.699Z,6.23
2022-12-03T04:49:50.933Z,5.70
2022-12-03T04:52:19.955Z,4.53
2022-12-03T04:54:47.850Z,3.68
2022-12-03T04:57:15.813Z,3.38
2022-12-03T04:59:43.599Z,4.94
2022-12-03T05:02:11.457Z,5.99
2022-12-03T05:04:39.462Z,4.96
2022-12-03T05:07:07.217Z,3.96
2022-12-03T05:09:35.052Z,3.29
2022-12-03T05:12:03.760Z,3.77
2022-12-03T05:14:31.567Z,5.55
2022-12-03T05:16:59.376Z,6.15
2022-12-03T05:19:47.241Z,5.02
2022-12-03T05:22:17.396Z,3.90
2022-12-03T05:24:45.530Z,3.23
2022-12-03T05:27:15.015Z,3.37
2022-12-03T05:29:44.428Z,5.08
2022-12-03T05:32:12.204Z,5.76
2022-12-03T05:34:40.021Z,4.68
2022-12-03T05:37:07.869Z,3.70
2022-12-03T05:39:35.797Z,3.40
2022-12-03T05:42:22.089Z,5.04
2022-12-03T05:44:49.862Z,5.23
2022-12-03T05:47:17.608Z,4.16
2022-12-03T05:49:45.423Z,3.35
2022-12-03T05:52:13.235Z,3.59
2022-12-03T05:54:41.066Z,5.29
2022-12-03T05:57:08.863Z,6.20
2022-12-03T05:59:36.679Z,5.12
2022-12-03T06:02:04.547Z,4.04
2022-12-03T06:04:32.421Z,3.30
2022-12-03T06:07:00.288Z,3.28
2022-12-03T06:09:28.204Z,5.01
2022-12-03T06:11:56.216Z,5.40
2022-12-03T06:14:24.314Z,4.32
2022-12-03T06:16:52.152Z,3.43
2022-12-03T06:19:19.915Z,4.55
2022-12-03T06:21:47.706Z,5.21
2022-12-03T06:24:15.570Z,4.18
2022-12-03T06:26:43.438Z,3.31
2022-12-03T06:29:11.305Z,3.26
2022-12-03T06:31:39.216Z,4.99
2022-12-03T06:34:07.184Z,5.63
2022-12-03T06:36:36.008Z,4.56
2022-12-03T06:39:03.996Z,3.64
2022-12-03T06:41:31.780Z,3.29
2022-12-03T06:44:00.684Z,4.79
2022-12-03T06:46:28.632Z,5.88
2022-12-03T06:48:56.532Z,4.90
2022-12-03T06:51:24.437Z,3.86
2022-12-03T06:53:52.482Z,3.37
2022-12-03T06:56:22.455Z,4.79
2022-12-03T06:58:53.270Z,5.83
2022-12-03T07:01:21.418Z,4.75
2022-12-03T07:03:49.509Z,3.79
2022-12-03T07:06:17.475Z,3.14
2022-12-03T07:08:48.114Z,3.88
2022-12-03T07:11:31.315Z,5.48
2022-12-03T07:14:05.137Z,4.76
2022-12-03T07:16:35.799Z,3.68
2022-12-03T07:19:05.607Z,2.99
2022-12-03T07:21:33.780Z,3.23
2022-12-03T07:24:01.703Z,5.08
2022-12-03T07:26:29.759Z,5.39
2022-12-03T07:28:57.612Z,4.30
2022-12-03T07:31:25.551Z,3.42
2022-12-03T07:33:53.537Z,3.85
2022-12-03T07:36:21.557Z,5.59
2022-12-03T07:38:49.661Z,5.40
2022-12-03T07:41:17.538Z,4.28
2022-12-03T07:43:45.310Z,3.42
2022-12-03T07:46:13.254Z,4.04
2022-12-03T07:48:41.215Z,5.43
2022-12-03T07:51:14.294Z,4.69
2022-12-03T07:53:43.346Z,3.74
2022-12-03T07:56:11.272Z,3.55
2022-12-03T07:58:39.283Z,5.12
2022-12-03T08:01:07.502Z,6.15
2022-12-03T08:03:35.587Z,5.09
2022-12-03T08:06:03.775Z,4.06
2022-12-03T08:08:32.139Z,3.38
2022-12-03T08:11:02.362Z,4.01
2022-12-03T08:13:31.014Z,5.73
2022-12-03T08:16:02.225Z,6.61
2022-12-03T08:18:30.304Z,5.39
2022-12-03T08:20:58.455Z,4.21
2022-12-03T08:23:28.931Z,3.61
2022-12-03T08:26:02.195Z,4.91
2022-12-03T08:28:32.034Z,5.48
2022-12-03T08:31:07.689Z,4.33
2022-12-03T08:33:39.141Z,3.82
2022-12-03T08:36:17.399Z,5.28
2022-12-03T08:38:50.672Z,4.95
2022-12-03T08:41:38.423Z,3.91
2022-12-03T08:44:27.869Z,3.83
2022-12-03T08:47:21.867Z,5.82
2022-12-03T08:50:06.327Z,5.66
2022-12-03T08:52:34.822Z,4.19
2022-12-03T08:55:47.511Z,4.60
2022-12-03T08:58:28.210Z,5.87
2022-12-03T09:01:11.104Z,4.70
2022-12-03T09:03:59.754Z,4.30
2022-12-03T09:06:29.856Z,6.00
2022-12-03T09:09:01.137Z,5.51
2022-12-03T09:11:33.861Z,4.33
2022-12-03T09:14:02.128Z,4.38
2022-12-03T09:16:30.906Z,6.03
2022-12-03T09:18:59.381Z,5.83
2022-12-03T09:21:27.438Z,4.65
2022-12-03T09:23:55.509Z,4.16
2022-12-03T09:26:23.407Z,5.73
2022-12-03T09:28:51.258Z,6.77
2022-12-03T09:31:19.910Z,5.75
2022-12-03T09:33:48.177Z,4.65
2022-12-03T09:36:16.331Z,3.99
2022-12-03T09:38:47.805Z,5.10
2022-12-03T09:41:16.396Z,6.61
2022-12-03T09:44:03.256Z,6.00
2022-12-03T09:46:34.833Z,4.70
2022-12-03T09:49:05.054Z,4.34
2022-12-03T09:51:36.860Z,5.96
2022-12-03T09:54:10.661Z,6.31
2022-12-03T09:56:39.063Z,5.08
2022-12-03T09:59:18.162Z,4.40
2022-12-03T10:01:46.202Z,5.79
2022-12-03T10:04:14.314Z,7.09
2022-12-03T10:06:45.794Z,6.36
2022-12-03T10:09:20.936Z,5.14
2022-12-03T10:11:49.006Z,4.51
2022-12-03T10:14:18.102Z,5.82
2022-12-03T10:16:46.342Z,7.09
2022-12-03T10:19:29.228Z,6.25
2022-12-03T10:21:57.754Z,5.13
2022-12-03T10:24:44.994Z,4.52
2022-12-03T10:27:29.804Z,5.76
2022-12-03T10:30:00.169Z,7.02
2022-12-03T10:32:44.997Z,5.99
2022-12-03T10:43:33.943Z,3.74
2022-12-03T10:46:04.113Z,5.61
2022-12-03T10:48:32.624Z,6.85
2022-12-03T10:51:27.467Z,5.91
2022-12-03T10:53:55.533Z,4.66
2022-12-03T10:56:27.561Z,4.44
2022-12-03T10:58:55.458Z,6.00
2022-12-03T11:01:26.280Z,6.58
2022-12-03T11:04:03.562Z,5.41
2022-12-03T11:06:33.170Z,4.49
2022-12-03T11:09:08.487Z,5.41
2022-12-03T11:11:37.579Z,6.82
2022-12-03T11:14:06.051Z,6.13
2022-12-03T11:16:40.382Z,5.05
2022-12-03T11:19:36.893Z,4.75
2022-12-03T11:22:05.187Z,6.52
2022-12-03T11:24:39.367Z,7.35
2022-12-03T11:27:17.154Z,6.12
2022-12-03T11:29:53.780Z,5.00
2022-12-03T11:32:43.947Z,4.26
2022-12-03T11:35:24.489Z,4.45
2022-12-03T11:37:52.768Z,6.33
2022-12-03T11:40:20.828Z,7.22
2022-12-03T11:42:49.842Z,6.18
2022-12-03T11:45:37.319Z,5.09
2022-12-03T11:48:14.663Z,4.77
2022-12-03T11:50:53.468Z,6.48
2022-12-03T11:53:27.465Z,6.75
2022-12-03T11:56:08.640Z,5.53
2022-12-03T11:58:40.279Z,4.56
2022-12-03T12:01:08.784Z,5.34
2022-12-03T12:03:49.248Z,7.03
2022-12-03T12:06:19.880Z,6.84
2022-12-03T12:08:58.444Z,5.61
2022-12-03T12:11:32.870Z,4.75
2022-12-03T12:14:05.924Z,5.71
2022-12-03T12:16:50.941Z,7.05
2022-12-03T12:19:41.383Z,6.15
2022-12-03T12:22:25.082Z,4.98
2022-12-03T12:25:04.524Z,4.86
2022-12-03T12:27:45.615Z,6.60
2022-12-03T12:30:17.024Z,6.99
2022-12-03T12:33:09.149Z,5.80
2022-12-03T12:35:37.080Z,4.77
2022-12-03T12:38:08.734Z,4.48
2022-12-03T12:40:40.152Z,6.07
2022-12-03T12:43:15.299Z,7.02
2022-12-03T12:45:44.520Z,5.90
2022-12-03T12:48:29.279Z,4.95
2022-12-03T12:51:12.818Z,4.43
2022-12-03T12:53:42.953Z,5.97
2022-12-03T12:56:25.633Z,6.49
2022-12-03T12:58:54.411Z,5.41
2022-12-03T13:01:29.515Z,4.59
2022-12-03T13:03:58.509Z,5.26
2022-12-03T13:06:30.750Z,7.03
2022-12-03T13:09:01.914Z,7.15
2022-12-03T13:11:46.012Z,5.96
2022-12-03T13:14:17.692Z,4.92
2022-12-03T13:16:48.506Z,4.75
2022-12-03T13:19:30.829Z,6.47
2022-12-03T13:22:19.598Z,6.89
2022-12-03T13:24:53.992Z,5.58
2022-12-03T13:27:30.291Z,4.86
2022-12-03T13:30:11.771Z,6.11
2022-12-03T13:32:41.777Z,7.33
2022-12-03T13:35:09.979Z,6.38
2022-12-03T13:37:40.846Z,5.38
2022-12-03T13:40:27.402Z,4.89
2022-12-03T13:42:55.800Z,6.55
2022-12-03T13:45:27.663Z,7.33
2022-12-03T13:48:00.413Z,6.23
2022-12-03T13:50:40.087Z,5.22
2022-12-03T13:53:37.320Z,5.61
2022-12-03T13:56:37.960Z,6.99
2022-12-03T13:59:06.664Z,5.86
2022-12-03T14:01:36.487Z,4.97
2022-12-03T14:04:05.007Z,4.82
2022-12-03T14:06:33.724Z,6.44
2022-12-03T14:09:01.912Z,7.52
2022-12-03T14:11:48.744Z,6.57
2022-12-03T14:14:19.853Z,5.36
2022-12-03T14:16:48.460Z,4.97
2022-12-03T14:19:16.663Z,6.44
2022-12-03T14:21:44.678Z,7.30
2022-12-03T14:24:12.904Z,6.27
2022-12-03T14:26:41.275Z,5.28
2022-12-03T14:29:09.324Z,5.33
2022-12-03T14:31:37.816Z,6.97
2022-12-03T14:34:06.156Z,7.17
2022-12-03T14:36:34.406Z,6.03
2022-12-03T14:39:02.626Z,5.11
2022-12-03T14:41:49.177Z,4.87
2022-12-03T14:44:17.613Z,6.63
2022-12-03T14:46:45.997Z,7.47
2022-12-03T14:49:14.669Z,6.42
2022-12-03T14:51:42.855Z,5.38
2022-12-03T14:54:11.372Z,4.68
2022-12-03T14:56:39.402Z,5.24
2022-12-03T14:59:07.376Z,7.03
2022-12-03T15:01:35.514Z,7.19
2022-12-03T15:04:03.861Z,6.04
2022-12-03T15:06:32.218Z,5.10
2022-12-03T15:09:00.260Z,4.97
2022-12-03T15:11:28.748Z,6.59
2022-12-03T15:13:57.160Z,7.35
2022-12-03T15:16:25.180Z,6.25
2022-12-03T15:18:53.197Z,5.28
2022-12-03T15:21:21.295Z,4.94
2022-12-03T15:23:49.552Z,6.43
2022-12-03T15:26:17.571Z,7.40
2022-12-03T15:28:48.454Z,6.40
2022-12-03T15:31:16.619Z,5.36
2022-12-03T15:33:44.753Z,5.13
2022-12-03T15:36:12.808Z,6.69
2022-12-03T15:38:41.005Z,6.89
2022-12-03T15:41:21.446Z,5.81
2022-12-03T15:43:52.833Z,4.93
2022-12-03T15:46:20.968Z,5.65
2022-12-03T15:48:49.974Z,7.39
2022-12-03T15:51:18.156Z,8.07
2022-12-03T15:53:47.463Z,6.92
2022-12-03T15:56:15.636Z,5.84
2022-12-03T15:58:43.751Z,5.07
2022-12-03T16:01:13.831Z,5.26
2022-12-03T16:03:42.238Z,7.06
2022-12-03T16:06:13.533Z,7.11
2022-12-03T16:08:41.764Z,5.93
2022-12-03T16:11:09.552Z,5.09
2022-12-03T16:13:37.388Z,5.64
2022-12-03T16:16:05.913Z,7.25
2022-12-03T16:18:34.120Z,7.76
2022-12-03T16:21:04.842Z,6.61
2022-12-03T16:23:32.834Z,5.57
2022-12-03T16:26:00.985Z,4.91
2022-12-03T16:28:31.811Z,5.68
2022-12-03T16:30:59.832Z,7.30
2022-12-03T16:33:28.208Z,7.84
2022-12-03T16:35:57.951Z,6.66
2022-12-03T16:38:25.838Z,5.60
2022-12-03T16:40:53.852Z,5.33
2022-12-03T16:43:21.929Z,6.80
2022-12-03T16:46:03.161Z,7.95
2022-12-03T16:48:31.389Z,6.98
2022-12-03T16:50:59.329Z,5.90
2022-12-03T16:53:27.354Z,5.47
2022-12-03T16:55:55.186Z,6.93
2022-12-03T16:58:23.368Z,7.87
2022-12-03T17:00:53.393Z,6.89
2022-12-03T17:03:22.954Z,5.86
2022-12-03T17:05:50.973Z,5.50
2022-12-03T17:08:18.743Z,6.93
2022-12-03T17:10:46.757Z,7.83
2022-12-03T17:13:15.498Z,6.83
2022-12-03T17:15:43.315Z,5.82
2022-12-03T17:18:11.623Z,5.58
2022-12-03T17:20:39.657Z,7.09
2022-12-03T17:23:11.964Z,7.90
2022-12-03T17:25:40.111Z,6.83
2022-12-03T17:28:07.988Z,5.79
2022-12-03T17:30:36.694Z,5.54
2022-12-03T17:33:05.283Z,7.07
2022-12-03T17:35:33.313Z,8.06
2022-12-03T17:38:02.638Z,7.11
2022-12-03T17:40:30.790Z,6.04
2022-12-03T17:42:58.705Z,5.28
2022-12-03T17:45:26.818Z,5.42
2022-12-03T17:47:54.900Z,7.07
2022-12-03T17:50:23.268Z,7.94
2022-12-03T17:52:51.365Z,6.92
2022-12-03T17:55:30.956Z,5.92
2022-12-03T17:58:04.621Z,5.62
2022-12-03T18:00:33.576Z,7.18
2022-12-03T18:03:01.580Z,8.10
2022-12-03T18:05:33.968Z,7.17
2022-12-03T18:08:06.380Z,6.08
2022-12-03T18:10:34.373Z,5.58
2022-12-03T18:13:02.642Z,6.86
2022-12-03T18:15:31.964Z,8.25
2022-12-03T18:18:00.196Z,7.79
2022-12-03T18:20:30.545Z,6.58
2022-12-03T18:23:02.423Z,5.71
2022-12-03T18:25:30.884Z,5.56
2022-12-03T18:28:01.258Z,7.06
2022-12-03T18:30:32.009Z,8.14
2022-12-03T18:33:02.391Z,7.20
2022-12-03T18:35:32.208Z,6.13
2022-12-03T18:38:02.879Z,5.73
2022-12-03T18:40:32.941Z,7.13
2022-12-03T18:43:01.263Z,8.13
2022-12-03T18:45:29.810Z,7.18
2022-12-03T18:47:59.006Z,6.15
2022-12-03T18:50:29.128Z,5.55
2022-12-03T18:52:57.036Z,6.66
2022-12-03T18:55:26.952Z,8.08
2022-12-03T18:57:59.680Z,7.51
2022-12-03T19:00:59.091Z,6.35
2022-12-03T19:04:06.660Z,5.80
2022-12-03T19:06:38.386Z,7.68
2022-12-03T19:09:07.699Z,8.31
2022-12-03T19:11:38.468Z,7.20
2022-12-03T19:14:11.242Z,6.17
2022-12-03T19:16:42.628Z,5.54
2022-12-03T19:19:14.634Z,6.64
2022-12-03T19:21:47.775Z,8.19
2022-12-03T19:24:26.575Z,8.67
2022-12-03T19:26:55.868Z,7.35
2022-12-03T19:29:41.147Z,6.28
2022-12-03T19:32:11.794Z,6.24
2022-12-03T19:35:16.749Z,7.83
2022-12-03T19:37:46.997Z,8.14
2022-12-03T19:40:16.735Z,6.95
2022-12-03T19:42:47.029Z,6.01
2022-12-03T19:45:15.504Z,5.96
2022-12-03T19:47:44.535Z,7.48
2022-12-03T19:50:22.378Z,8.73
2022-12-03T19:52:59.146Z,7.93
2022-12-03T19:55:29.974Z,6.71
2022-12-03T19:58:02.157Z,5.90
2022-12-03T20:00:32.028Z,6.45
2022-12-03T20:03:01.322Z,7.98
2022-12-03T20:05:39.126Z,8.50
2022-12-03T20:08:15.092Z,7.27
2022-12-03T20:10:44.785Z,6.26
2022-12-03T20:13:16.084Z,6.83
2022-12-03T20:15:44.376Z,8.39
2022-12-03T20:18:12.490Z,8.59
2022-12-03T20:20:43.072Z,7.33
2022-12-03T20:23:13.855Z,6.31
2022-12-03T20:25:41.846Z,6.16
2022-12-03T20:28:15.998Z,7.62
2022-12-03T20:30:47.123Z,8.54
2022-12-03T20:33:16.853Z,7.47
2022-12-03T20:35:45.039Z,6.44
2022-12-03T20:38:17.749Z,6.17
2022-12-03T20:40:48.175Z,7.65
2022-12-03T20:43:20.671Z,8.70
2022-12-03T20:46:02.867Z,7.87
2022-12-03T20:48:33.299Z,6.65
2022-12-03T20:51:12.164Z,6.29
2022-12-03T20:53:44.593Z,7.81
2022-12-03T20:56:26.679Z,8.58
2022-12-03T20:58:55.078Z,7.45
2022-12-03T21:01:30.609Z,6.45
2022-12-03T21:04:05.305Z,6.22
2022-12-03T21:06:37.433Z,7.81
2022-12-03T21:09:07.302Z,8.72
2022-12-03T21:11:36.589Z,7.70
2022-12-03T21:14:06.606Z,6.60
2022-12-03T21:17:08.026Z,6.24
2022-12-03T21:19:29.081Z,7.88
2022-12-03T21:21:58.832Z,8.71
2022-12-03T21:24:26.818Z,7.63
2022-12-03T21:26:58.964Z,6.58
2022-12-03T21:29:26.808Z,6.26
2022-12-03T21:31:54.731Z,7.75
2022-12-03T21:34:23.417Z,8.60
2022-12-03T21:36:57.141Z,7.46
2022-12-03T21:39:27.389Z,6.40
2022-12-03T21:42:18.947Z,6.22
2022-12-03T21:44:44.615Z,7.98
2022-12-03T21:47:14.255Z,8.63
2022-12-03T21:49:43.430Z,7.48
2022-12-03T21:52:13.569Z,6.47
2022-12-03T21:54:41.717Z,6.94
2022-12-03T21:57:10.222Z,8.46
2022-12-03T21:59:41.022Z,8.12
2022-12-03T22:02:10.734Z,6.96
2022-12-03T22:04:39.896Z,6.53
2022-12-03T22:07:08.615Z,8.03
2022-12-03T22:09:36.522Z,8.75
2022-12-03T22:12:09.084Z,7.58
2022-12-03T22:14:40.416Z,6.60
2022-12-03T22:17:11.084Z,7.36
2022-12-03T22:19:39.767Z,8.84
2022-12-03T22:22:08.629Z,8.64
2022-12-03T22:24:38.903Z,7.33
2022-12-03T22:27:06.936Z,6.43
2022-12-03T22:29:35.079Z,7.00
2022-12-03T22:32:04.213Z,8.53
2022-12-03T22:34:33.751Z,8.07
2022-12-03T22:37:01.890Z,6.92
2022-12-03T22:39:29.934Z,6.45
2022-12-03T22:41:58.242Z,7.77
2022-12-03T22:44:27.639Z,9.04
2022-12-03T22:46:56.637Z,8.46
2022-12-03T22:49:27.500Z,7.27
2022-12-03T22:51:58.351Z,6.65
2022-12-03T22:54:26.229Z,7.91
2022-12-03T22:56:54.257Z,8.82
2022-12-03T22:59:22.074Z,7.78
2022-12-03T23:01:50.228Z,6.79
2022-12-03T23:04:18.304Z,7.30
2022-12-03T23:06:46.479Z,8.83
2022-12-03T23:09:17.989Z,9.32
2022-12-03T23:11:46.123Z,8.03
2022-12-03T23:14:14.211Z,7.06
2022-12-03T23:16:42.175Z,7.90
2022-12-03T23:19:09.982Z,9.18
2022-12-03T23:21:37.743Z,8.50
2022-12-03T23:24:06.459Z,7.34
2022-12-03T23:26:37.561Z,7.00
2022-12-03T23:29:06.419Z,8.38
2022-12-03T23:31:35.031Z,9.55
2022-12-03T23:34:03.935Z,8.66
2022-12-03T23:36:32.950Z,7.45
2022-12-03T23:39:00.966Z,6.95
2022-12-03T23:41:28.818Z,8.24
2022-12-03T23:43:56.882Z,9.62
2022-12-03T23:46:27.331Z,9.22
2022-12-03T23:48:55.409Z,7.95
2022-12-03T23:51:24.988Z,7.09
2022-12-03T23:53:54.503Z,8.01
2022-12-03T23:56:26.748Z,9.47
2022-12-03T23:58:56.527Z,9.15
